Time;durP1;ratioP1;P1;durP2;ratioP2;P2;SDS_P1;SDS_P2;PMS_P1;PMS_P2;Temp;Humidity;BMP_temperature;BMP_pressure;BME280_temperature;BME280_humidity;BME280_pressure;Samples;Min_cycle;Max_cycle;Signal;HPM_P1;HPM_P2
2021/04/10 00:00:20;;;;;;;2.67;2.47;;;12.50;55.80;;;;;;5060655;28;20451;-81
2021/04/10 00:02:48;;;;;;;3.73;2.50;;;12.50;55.90;;;;;;5058571;28;20491;-81
2021/04/10 00:05:15;;;;;;;3.73;2.30;;;12.50;56.10;;;;;;5059685;28;20471;-81
2021/04/10 00:07:41;;;;;;;2.33;1.80;;;12.40;55.80;;;;;;5059839;28;20495;-82
2021/04/10 00:10:10;;;;;;;2.97;2.37;;;12.30;55.90;;;;;;5059399;28;20458;-81
2021/04/10 00:12:36;;;;;;;2.03;1.93;;;12.40;56.10;;;;;;5059540;28;20526;-81
2021/04/10 00:15:05;;;;;;;4.50;2.80;;;12.40;56.10;;;;;;5060004;28;20449;-81
2021/04/10 00:17:31;;;;;;;2.60;2.40;;;12.40;56.30;;;;;;5059172;28;21058;-81
2021/04/10 00:19:57;;;;;;;4.07;3.23;;;12.40;56.50;;;;;;5059919;28;20509;-81
2021/04/10 00:22:23;;;;;;;2.43;2.20;;;12.30;56.70;;;;;;5059146;28;20444;-81
2021/04/10 00:24:50;;;;;;;3.40;2.90;;;12.20;56.90;;;;;;5059422;28;20459;-81
2021/04/10 00:27:16;;;;;;;6.90;2.97;;;12.00;57.30;;;;;;5059293;28;20468;-81
2021/04/10 00:29:42;;;;;;;3.00;2.07;;;12.00;57.40;;;;;;5059105;28;20460;-81
2021/04/10 00:32:09;;;;;;;2.90;2.60;;;12.00;57.40;;;;;;5059577;28;20451;-80
2021/04/10 00:34:35;;;;;;;2.17;2.00;;;12.00;57.50;;;;;;5059718;28;20448;-81
2021/04/10 00:37:02;;;;;;;3.33;2.03;;;12.00;57.50;;;;;;5058967;28;20451;-80
2021/04/10 00:39:28;;;;;;;4.60;3.10;;;11.80;57.60;;;;;;5059176;28;20440;-81
2021/04/10 00:41:54;;;;;;;3.70;2.83;;;11.70;57.80;;;;;;5058711;28;20477;-81
2021/04/10 00:44:20;;;;;;;3.90;2.10;;;11.60;58.10;;;;;;5058977;28;20460;-81
2021/04/10 00:46:47;;;;;;;2.20;2.00;;;11.50;58.20;;;;;;5059618;28;20459;-81
2021/04/10 00:49:14;;;;;;;4.83;2.23;;;11.50;58.30;;;;;;5058285;28;20992;-81
2021/04/10 00:51:40;;;;;;;2.93;2.07;;;11.60;58.30;;;;;;5058758;28;20468;-81
2021/04/10 00:54:07;;;;;;;4.23;1.60;;;11.70;58.20;;;;;;5058393;28;20513;-81
2021/04/10 00:56:33;;;;;;;2.37;2.20;;;11.70;58.20;;;;;;5058717;28;20451;-81
2021/04/10 00:59:00;;;;;;;2.83;2.63;;;11.80;58.30;;;;;;5058298;28;20475;-81
2021/04/10 01:01:26;;;;;;;4.93;2.10;;;11.70;58.30;;;;;;5058086;28;20455;-82
2021/04/10 01:03:52;;;;;;;3.03;2.43;;;11.70;58.40;;;;;;5058488;28;20443;-80
2021/04/10 01:06:19;;;;;;;2.93;2.20;;;11.70;58.60;;;;;;5058484;28;20459;-81
2021/04/10 01:08:46;;;;;;;4.23;2.50;;;11.60;58.60;;;;;;5058502;28;20830;-80
2021/04/10 01:11:28;;;;;;;3.37;3.10;;;11.60;58.80;;;;;;5058167;28;20448;-81
2021/04/10 01:14:01;;;;;;;4.87;2.20;;;11.70;58.70;;;;;;5058271;28;20478;-81
2021/04/10 01:16:32;;;;;;;2.60;2.00;;;11.70;58.70;;;;;;5057674;28;20447;-80
2021/04/10 01:19:07;;;;;;;4.83;2.50;;;11.80;58.80;;;;;;5057761;28;20519;-81
2021/04/10 01:21:40;;;;;;;2.17;1.93;;;11.70;58.80;;;;;;5057777;28;20935;-81
2021/04/10 01:24:35;;;;;;;1.80;1.70;;;11.60;59.00;;;;;;5058236;28;20864;-81
2021/04/10 01:27:13;;;;;;;1.80;1.47;;;11.60;59.20;;;;;;5058126;28;20443;-81
2021/04/10 01:29:44;;;;;;;3.30;1.90;;;11.60;59.20;;;;;;5057909;28;20446;-81
2021/04/10 01:32:12;;;;;;;2.80;2.43;;;11.60;59.30;;;;;;5057772;28;20452;-81
2021/04/10 01:34:45;;;;;;;2.80;2.50;;;11.70;59.50;;;;;;5057695;28;20447;-81
2021/04/10 01:37:15;;;;;;;1.60;1.50;;;11.70;59.50;;;;;;5057903;28;20486;-80
2021/04/10 01:39:43;;;;;;;2.63;2.17;;;11.80;59.50;;;;;;5118273;22;20498;-84
2021/04/10 01:42:12;;;;;;;2.27;1.93;;;11.80;59.60;;;;;;5099330;28;20437;-84
2021/04/10 01:44:39;;;;;;;2.60;1.63;;;11.80;59.60;;;;;;5099967;28;20444;-84
2021/04/10 01:47:11;;;;;;;2.70;1.97;;;11.80;59.60;;;;;;5099703;28;20452;-85
2021/04/10 01:49:38;;;;;;;1.97;1.87;;;11.70;59.60;;;;;;5099345;28;20459;-84
2021/04/10 01:52:05;;;;;;;2.00;1.90;;;11.70;59.90;;;;;;5099373;28;20477;-84
2021/04/10 01:54:32;;;;;;;3.57;1.70;;;11.70;59.90;;;;;;5099731;28;20449;-84
2021/04/10 01:57:00;;;;;;;2.00;1.90;;;11.70;60.00;;;;;;5100680;28;20471;-84
2021/04/10 01:59:27;;;;;;;1.60;1.50;;;11.70;60.20;;;;;;5099651;28;20474;-84
2021/04/10 02:01:55;;;;;;;2.10;1.90;;;11.70;60.10;;;;;;5099065;28;20457;-86
2021/04/10 02:04:22;;;;;;;2.20;2.10;;;11.60;60.30;;;;;;5098228;28;20449;-84
2021/04/10 02:06:50;;;;;;;1.90;1.70;;;11.70;60.40;;;;;;5099416;28;20529;-84
2021/04/10 02:09:18;;;;;;;2.60;1.60;;;11.70;60.40;;;;;;5098336;28;20556;-84
2021/04/10 02:11:47;;;;;;;2.20;1.97;;;11.70;60.50;;;;;;5098959;28;20533;-85
2021/04/10 02:14:14;;;;;;;1.97;1.87;;;11.70;60.40;;;;;;5101567;28;20485;-86
2021/04/10 02:16:41;;;;;;;1.90;1.77;;;11.70;60.50;;;;;;5101277;28;20449;-85
2021/04/10 02:19:08;;;;;;;2.97;1.87;;;11.70;60.50;;;;;;5101294;28;20470;-85
2021/04/10 02:21:38;;;;;;;2.10;1.87;;;11.70;60.40;;;;;;5100593;28;20476;-84
2021/04/10 02:24:05;;;;;;;1.80;1.70;;;11.80;60.70;;;;;;5100396;28;20446;-84
2021/04/10 02:26:31;;;;;;;1.60;1.50;;;11.80;60.70;;;;;;5101248;28;20454;-84
2021/04/10 02:28:58;;;;;;;4.03;2.10;;;11.70;60.80;;;;;;5101227;28;20469;-84
2021/04/10 02:31:29;;;;;;;2.37;2.10;;;11.70;61.00;;;;;;5102457;28;20457;-84
2021/04/10 02:34:01;;;;;;;3.17;1.50;;;11.80;61.10;;;;;;5102218;28;20469;-85
2021/04/10 02:36:30;;;;;;;2.37;1.80;;;11.70;61.30;;;;;;5102882;28;20448;-84
2021/04/10 02:38:58;;;;;;;2.40;2.20;;;11.60;61.40;;;;;;5102197;28;20506;-84
2021/04/10 02:41:27;;;;;;;2.00;1.73;;;11.70;61.70;;;;;;5101548;28;20535;-85
2021/04/10 02:43:58;;;;;;;2.70;1.53;;;11.70;61.60;;;;;;5100549;28;20448;-86
2021/04/10 02:46:30;;;;;;;3.00;2.00;;;11.70;61.80;;;;;;5100813;28;20461;-84
2021/04/10 02:49:01;;;;;;;2.40;2.20;;;11.70;62.10;;;;;;5102725;28;20481;-84
2021/04/10 02:51:31;;;;;;;1.90;1.50;;;11.80;62.20;;;;;;5101979;28;20450;-84
2021/04/10 02:53:59;;;;;;;3.33;1.67;;;11.80;62.30;;;;;;5102595;28;20476;-84
2021/04/10 02:56:29;;;;;;;3.13;1.40;;;11.80;62.50;;;;;;5102469;28;20958;-85
2021/04/10 02:58:57;;;;;;;1.40;1.30;;;11.80;62.30;;;;;;5102223;28;20843;-84
2021/04/10 03:01:24;;;;;;;1.93;1.83;;;11.80;62.50;;;;;;5102870;28;20453;-84
2021/04/10 03:03:51;;;;;;;3.13;2.40;;;11.70;62.70;;;;;;5102471;28;20454;-86
2021/04/10 03:06:18;;;;;;;3.27;1.63;;;11.80;62.80;;;;;;5101456;28;20841;-84
2021/04/10 03:08:47;;;;;;;2.80;1.67;;;11.80;62.90;;;;;;5102604;28;20974;-85
2021/04/10 03:11:15;;;;;;;2.80;1.47;;;11.70;62.90;;;;;;5103114;28;20543;-84
2021/04/10 03:13:42;;;;;;;1.60;1.50;;;11.80;63.30;;;;;;5102580;28;20486;-84
2021/04/10 03:16:08;;;;;;;3.90;1.20;;;11.70;63.40;;;;;;5102464;28;20447;-84
2021/04/10 03:18:36;;;;;;;2.90;2.03;;;11.70;63.60;;;;;;5103135;28;20469;-84
2021/04/10 03:21:04;;;;;;;4.00;1.70;;;11.70;64.10;;;;;;5102383;28;20453;-85
2021/04/10 03:23:30;;;;;;;2.73;1.73;;;11.60;64.20;;;;;;5102361;28;20458;-84
2021/04/10 03:25:58;;;;;;;2.17;1.63;;;11.70;64.50;;;;;;5102579;28;20453;-85
2021/04/10 03:28:28;;;;;;;2.20;1.70;;;11.70;64.60;;;;;;5101691;28;20473;-86
2021/04/10 03:30:57;;;;;;;1.47;1.37;;;11.80;64.70;;;;;;5102424;28;20453;-85
2021/04/10 03:33:24;;;;;;;1.67;1.57;;;11.70;64.80;;;;;;5101819;28;20622;-84
2021/04/10 03:35:51;;;;;;;3.53;1.40;;;11.70;65.00;;;;;;5100944;28;20453;-86
2021/04/10 03:38:17;;;;;;;1.80;1.40;;;11.70;65.40;;;;;;5102536;28;20489;-84
2021/04/10 03:40:43;;;;;;;1.20;1.13;;;11.70;65.60;;;;;;5102054;28;20444;-84
2021/04/10 03:43:10;;;;;;;2.00;1.80;;;11.60;65.80;;;;;;5100970;28;20442;-85
2021/04/10 03:45:37;;;;;;;2.70;1.80;;;11.60;66.10;;;;;;5101010;28;20445;-85
2021/04/10 03:48:04;;;;;;;1.70;1.60;;;11.70;66.40;;;;;;5100921;28;20474;-86
2021/04/10 03:50:30;;;;;;;2.63;1.67;;;11.70;66.40;;;;;;5100967;28;20449;-84
2021/04/10 03:52:56;;;;;;;2.07;1.60;;;11.70;66.80;;;;;;5100154;28;20481;-84
2021/04/10 03:55:22;;;;;;;1.77;1.53;;;11.80;67.40;;;;;;5101207;28;20450;-84
2021/04/10 03:57:49;;;;;;;2.83;1.80;;;11.70;67.80;;;;;;5101112;28;20446;-84
2021/04/10 04:00:16;;;;;;;1.30;1.23;;;11.70;68.10;;;;;;5101145;28;20453;-86
2021/04/10 04:02:43;;;;;;;8.13;1.30;;;11.70;68.10;;;;;;5099931;28;20445;-84
2021/04/10 04:05:11;;;;;;;1.60;1.40;;;11.70;68.10;;;;;;5099898;28;20450;-84
2021/04/10 04:07:38;;;;;;;3.37;1.70;;;11.70;68.30;;;;;;5100473;28;20446;-85
2021/04/10 04:10:05;;;;;;;5.03;3.20;;;11.70;68.50;;;;;;5099899;28;20812;-84
2021/04/10 04:12:31;;;;;;;1.77;1.67;;;11.70;68.70;;;;;;5099630;28;20543;-84
2021/04/10 04:14:58;;;;;;;3.83;1.83;;;11.70;69.70;;;;;;5099360;28;20450;-84
2021/04/10 04:17:24;;;;;;;3.60;1.70;;;11.60;71.60;;;;;;5098362;28;20456;-84
2021/04/10 04:19:51;;;;;;;2.17;1.47;;;11.50;72.50;;;;;;5097988;28;20484;-84
2021/04/10 04:22:17;;;;;;;1.60;1.50;;;11.50;73.50;;;;;;5098610;28;21119;-84
2021/04/10 04:24:43;;;;;;;2.83;1.60;;;11.40;73.30;;;;;;5099215;28;20495;-84
2021/04/10 04:27:10;;;;;;;1.77;1.40;;;11.30;73.90;;;;;;5098506;28;20453;-85
2021/04/10 04:29:36;;;;;;;2.83;1.73;;;11.20;73.70;;;;;;5099036;28;20880;-85
2021/04/10 04:32:03;;;;;;;2.53;1.40;;;11.20;72.60;;;;;;5098302;28;20453;-84
2021/04/10 04:34:29;;;;;;;1.43;1.20;;;11.10;73.40;;;;;;5099367;28;20485;-84
2021/04/10 04:36:56;;;;;;;2.03;1.33;;;11.10;73.20;;;;;;5100023;28;20460;-84
2021/04/10 04:39:22;;;;;;;1.37;1.27;;;11.20;72.50;;;;;;5099077;28;20481;-85
2021/04/10 04:41:48;;;;;;;1.40;1.30;;;11.10;72.40;;;;;;5097858;28;20461;-84
2021/04/10 04:44:15;;;;;;;1.40;1.30;;;11.20;72.00;;;;;;5100031;28;20825;-84
2021/04/10 04:46:41;;;;;;;1.50;1.30;;;11.20;71.60;;;;;;5098328;28;20457;-84
2021/04/10 04:49:07;;;;;;;1.80;1.60;;;11.10;72.50;;;;;;5099456;28;20474;-84
2021/04/10 04:51:34;;;;;;;2.07;1.30;;;11.00;71.90;;;;;;5097935;28;20472;-84
2021/04/10 04:54:01;;;;;;;2.63;1.47;;;11.00;72.30;;;;;;5098194;28;20487;-86
2021/04/10 04:56:27;;;;;;;1.40;1.30;;;11.00;72.70;;;;;;5099057;28;20958;-84
2021/04/10 04:58:53;;;;;;;1.90;1.23;;;10.90;73.20;;;;;;5100634;28;20469;-84
2021/04/10 05:01:20;;;;;;;2.93;1.40;;;10.90;74.00;;;;;;5099121;28;20974;-87
2021/04/10 05:03:46;;;;;;;2.40;1.60;;;10.80;76.40;;;;;;5099056;28;20439;-84
2021/04/10 05:06:12;;;;;;;2.27;1.70;;;10.80;82.10;;;;;;5097308;28;20453;-86
2021/04/10 05:08:39;;;;;;;2.47;1.80;;;10.70;86.00;;;;;;5097762;28;20507;-84
2021/04/10 05:11:06;;;;;;;1.60;1.50;;;10.40;90.90;;;;;;5095653;28;20452;-84
2021/04/10 05:13:32;;;;;;;2.77;1.43;;;10.20;93.00;;;;;;5096683;28;20490;-84
2021/04/10 05:15:58;;;;;;;1.73;1.63;;;10.00;95.10;;;;;;5097340;28;20506;-85
2021/04/10 05:18:25;;;;;;;1.37;1.27;;;9.80;97.10;;;;;;5096002;28;20473;-84
2021/04/10 05:20:52;;;;;;;1.60;1.50;;;9.80;97.50;;;;;;5089323;28;20457;-84
2021/04/10 05:23:21;;;;;;;2.55;2.33;;;9.70;98.70;;;;;;5097333;28;20445;-84
2021/04/10 05:25:48;;;;;;;1.52;1.42;;;9.60;99.10;;;;;;5098929;28;20216;-85
2021/04/10 05:28:16;;;;;;;1.70;1.60;;;9.40;99.90;;;;;;5097399;28;20222;-85
2021/04/10 05:30:42;;;;;;;2.28;1.70;;;9.40;99.70;;;;;;5097469;28;20459;-85
2021/04/10 05:33:08;;;;;;;2.80;1.60;;;9.50;99.90;;;;;;5098066;28;20582;-84
2021/04/10 05:35:35;;;;;;;3.95;1.58;;;9.60;99.60;;;;;;5097637;28;20433;-86
2021/04/10 05:38:02;;;;;;;5.20;1.70;;;9.60;98.50;;;;;;5097929;28;20237;-84
2021/04/10 05:40:28;;;;;;;1.63;1.52;;;9.70;97.70;;;;;;5098707;28;20441;-85
2021/04/10 05:42:54;;;;;;;5.13;1.97;;;9.80;97.30;;;;;;5099181;28;20211;-85
2021/04/10 05:45:22;;;;;;;1.37;1.27;;;9.80;97.00;;;;;;5099824;28;20452;-85
2021/04/10 05:47:48;;;;;;;2.00;1.43;;;9.90;96.70;;;;;;5099492;28;20449;-84
2021/04/10 05:50:14;;;;;;;2.70;1.90;;;9.90;96.50;;;;;;5099089;28;20451;-85
2021/04/10 05:52:41;;;;;;;3.60;1.70;;;10.00;95.70;;;;;;5099809;28;20487;-84
2021/04/10 05:55:08;;;;;;;2.60;1.57;;;10.00;95.10;;;;;;5099193;28;20443;-85
2021/04/10 05:57:34;;;;;;;4.40;1.47;;;10.00;94.90;;;;;;5099594;28;20479;-85
2021/04/10 06:00:01;;;;;;;0.97;0.87;;;10.10;94.60;;;;;;5099738;28;20452;-85
2021/04/10 06:02:28;;;;;;;2.27;1.70;;;10.10;94.20;;;;;;5100040;28;20526;-86
2021/04/10 06:04:56;;;;;;;3.73;1.80;;;10.20;94.20;;;;;;5103713;28;20459;-84
2021/04/10 06:07:22;;;;;;;1.00;1.00;;;10.10;93.80;;;;;;5104019;28;20574;-85
2021/04/10 06:09:49;;;;;;;1.53;1.30;;;10.20;93.80;;;;;;5103986;28;20477;-85
2021/04/10 06:12:15;;;;;;;1.63;1.50;;;10.20;94.00;;;;;;5103725;28;20443;-84
2021/04/10 06:14:41;;;;;;;1.80;1.70;;;10.30;93.70;;;;;;5104304;28;20997;-86
2021/04/10 06:17:09;;;;;;;4.20;1.67;;;10.40;93.90;;;;;;5104431;28;20447;-85
2021/04/10 06:19:36;;;;;;;2.23;2.07;;;10.40;93.80;;;;;;5103563;28;20487;-84
2021/04/10 06:22:02;;;;;;;2.03;1.57;;;10.50;93.50;;;;;;5104112;28;20452;-84
2021/04/10 06:24:29;;;;;;;1.20;1.10;;;10.50;93.30;;;;;;5103394;28;20455;-85
2021/04/10 06:26:55;;;;;;;2.93;1.57;;;10.60;93.40;;;;;;5103801;28;20450;-84
2021/04/10 06:29:21;;;;;;;2.03;1.93;;;10.60;93.40;;;;;;5103914;28;20480;-85
2021/04/10 06:31:48;;;;;;;1.30;1.20;;;10.70;93.70;;;;;;5103643;28;20478;-84
2021/04/10 06:34:14;;;;;;;1.53;1.43;;;10.70;93.50;;;;;;5102832;28;20484;-86
2021/04/10 06:36:41;;;;;;;1.73;1.63;;;10.80;93.40;;;;;;5102908;28;20502;-86
2021/04/10 06:39:07;;;;;;;1.80;1.70;;;10.80;93.20;;;;;;5103493;28;20493;-84
2021/04/10 06:41:34;;;;;;;2.13;1.30;;;10.80;93.00;;;;;;5103007;28;20444;-84
2021/04/10 06:44:00;;;;;;;1.80;1.33;;;10.80;93.20;;;;;;5102591;28;20443;-86
2021/04/10 06:46:32;;;;;;;1.70;1.60;;;10.70;93.20;;;;;;5103177;28;20453;-86
2021/04/10 06:48:59;;;;;;;1.60;1.50;;;10.80;93.10;;;;;;5103289;28;20469;-84
2021/04/10 06:51:26;;;;;;;1.90;1.57;;;10.90;93.20;;;;;;5103141;28;20442;-84
2021/04/10 06:53:54;;;;;;;1.87;1.67;;;10.90;93.30;;;;;;5103281;28;20569;-86
2021/04/10 06:56:24;;;;;;;1.93;1.83;;;10.90;93.40;;;;;;5103085;28;20483;-85
2021/04/10 06:59:02;;;;;;;3.30;1.63;;;10.90;93.50;;;;;;5102807;28;20465;-85
2021/04/10 07:01:30;;;;;;;3.17;1.80;;;10.90;93.80;;;;;;5102529;28;20441;-86
2021/04/10 07:03:56;;;;;;;1.20;1.10;;;10.90;93.90;;;;;;5101408;28;20446;-84
2021/04/10 07:06:22;;;;;;;1.77;1.30;;;10.70;94.70;;;;;;5101024;28;20438;-86
2021/04/10 07:08:49;;;;;;;2.03;1.83;;;10.60;95.40;;;;;;5101444;28;20470;-85
2021/04/10 07:11:17;;;;;;;2.60;1.33;;;10.60;95.70;;;;;;5101137;28;20468;-85
2021/04/10 07:13:44;;;;;;;1.90;1.23;;;10.60;95.80;;;;;;5100290;28;20492;-85
2021/04/10 07:16:12;;;;;;;1.37;1.27;;;10.60;95.70;;;;;;5099343;28;20456;-84
2021/04/10 07:18:38;;;;;;;1.57;1.47;;;10.60;95.00;;;;;;5099871;28;20474;-84
2021/04/10 07:21:15;;;;;;;2.77;2.10;;;10.70;94.60;;;;;;5101559;28;20453;-85
2021/04/10 07:23:50;;;;;;;2.13;1.90;;;10.80;94.70;;;;;;5100510;28;20433;-85
2021/04/10 07:26:18;;;;;;;1.40;1.40;;;10.90;94.40;;;;;;5102356;28;20433;-85
2021/04/10 07:28:45;;;;;;;3.13;1.53;;;11.00;94.10;;;;;;5100471;28;20465;-85
2021/04/10 07:31:13;;;;;;;2.33;2.13;;;10.90;93.90;;;;;;5100080;28;20440;-84
2021/04/10 07:33:42;;;;;;;3.80;1.07;;;10.90;94.00;;;;;;5102031;28;20489;-85
2021/04/10 07:36:09;;;;;;;1.83;1.70;;;11.00;93.80;;;;;;5102191;28;20461;-84
2021/04/10 07:38:37;;;;;;;1.80;1.60;;;11.10;93.90;;;;;;5101706;28;20484;-86
2021/04/10 07:41:06;;;;;;;2.37;1.50;;;11.10;94.10;;;;;;5102362;28;20475;-84
2021/04/10 07:43:38;;;;;;;2.10;1.70;;;11.20;93.80;;;;;;5101984;28;20450;-84
2021/04/10 07:46:15;;;;;;;5.53;2.03;;;11.10;93.60;;;;;;5102334;28;20774;-84
2021/04/10 07:49:03;;;;;;;3.50;1.93;;;11.20;93.70;;;;;;5101867;28;20474;-84
2021/04/10 07:51:31;;;;;;;1.40;1.30;;;11.20;93.70;;;;;;5102542;28;20464;-85
2021/04/10 07:53:59;;;;;;;1.87;1.00;;;11.30;93.60;;;;;;5102967;28;20534;-86
2021/04/10 07:56:25;;;;;;;1.30;1.23;;;11.20;94.10;;;;;;5103279;28;20433;-84
2021/04/10 07:59:02;;;;;;;1.60;1.50;;;11.20;94.60;;;;;;5102864;28;20448;-85
2021/04/10 08:01:28;;;;;;;2.30;2.10;;;11.10;96.00;;;;;;5098622;28;20421;-84
2021/04/10 08:03:57;;;;;;;2.47;2.10;;;11.00;97.50;;;;;;5099341;28;20450;-84
2021/04/10 08:06:23;;;;;;;3.17;1.80;;;11.10;98.30;;;;;;5098799;28;20457;-84
2021/04/10 08:08:54;;;;;;;1.73;1.63;;;10.90;99.60;;;;;;5096927;28;20471;-86
2021/04/10 08:11:35;;;;;;;3.80;3.50;;;10.90;99.90;;;;;;5097552;28;20449;-85
2021/04/10 08:14:04;;;;;;;1.63;1.53;;;10.60;99.90;;;;;;5094430;28;20491;-85
2021/04/10 08:16:31;;;;;;;2.40;2.20;;;10.60;99.90;;;;;;5094828;28;20460;-85
2021/04/10 08:18:58;;;;;;;2.53;2.13;;;10.60;99.90;;;;;;5094055;28;20482;-85
2021/04/10 08:21:43;;;;;;;4.33;1.80;;;10.60;99.90;;;;;;5094359;28;20505;-88
2021/04/10 08:24:31;;;;;;;2.13;2.03;;;10.60;99.70;;;;;;5077934;28;20857;-87
2021/04/10 08:26:59;;;;;;;1.73;1.63;;;10.70;99.50;;;;;;5092646;28;20594;-88
2021/04/10 08:29:27;;;;;;;2.10;1.13;;;10.80;99.80;;;;;;5092511;28;20579;-85
2021/04/10 08:32:07;;;;;;;1.73;1.63;;;10.90;97.90;;;;;;5093151;28;20434;-89
2021/04/10 08:34:34;;;;;;;3.93;1.30;;;11.00;97.60;;;;;;5092585;28;20554;-87
2021/04/10 08:37:02;;;;;;;1.60;1.50;;;11.00;97.30;;;;;;5092207;28;20465;-87
2021/04/10 08:39:41;;;;;;;1.67;1.50;;;11.10;97.00;;;;;;5092315;28;20489;-86
2021/04/10 08:42:21;;;;;;;1.80;1.70;;;11.20;96.90;;;;;;5094142;28;20985;-85
2021/04/10 08:44:49;;;;;;;1.20;1.10;;;11.30;96.40;;;;;;5092576;28;20471;-86
2021/04/10 08:47:17;;;;;;;2.50;2.40;;;11.30;96.10;;;;;;5092357;28;20489;-85
2021/04/10 08:49:48;;;;;;;1.20;1.00;;;11.40;96.10;;;;;;5092381;28;20522;-84
2021/04/10 08:52:20;;;;;;;2.50;1.77;;;11.40;96.20;;;;;;5099027;28;20411;-83
2021/04/10 08:54:51;;;;;;;1.37;1.27;;;11.60;96.40;;;;;;5094874;28;20473;-85
2021/04/10 09:00:31;;;;;;;2.40;2.20;;;11.80;95.30;;;;;;5093881;28;20934;-85
2021/04/10 09:03:00;;;;;;;3.50;1.67;;;11.80;95.60;;;;;;5099634;28;20459;-84
2021/04/10 09:05:46;;;;;;;2.47;1.40;;;11.90;95.00;;;;;;5100935;28;20449;-82
2021/04/10 09:08:36;;;;;;;1.47;1.37;;;11.90;94.30;;;;;;5094543;28;20469;-87
2021/04/10 09:11:05;;;;;;;1.40;1.30;;;11.90;94.50;;;;;;5092333;28;20462;-86
2021/04/10 09:13:41;;;;;;;1.87;1.77;;;12.00;94.00;;;;;;5093043;28;20524;-87
2021/04/10 09:16:29;;;;;;;1.43;1.33;;;12.10;93.80;;;;;;5093860;28;20493;-85
2021/04/10 09:19:00;;;;;;;1.60;1.50;;;12.10;94.10;;;;;;5093291;28;20559;-86
2021/04/10 09:21:38;;;;;;;1.50;1.40;;;12.10;93.40;;;;;;5094930;28;20521;-85
2021/04/10 09:24:29;;;;;;;1.40;1.30;;;12.20;93.30;;;;;;5092549;28;20434;-85
2021/04/10 09:26:58;;;;;;;2.10;1.10;;;12.30;93.30;;;;;;5092887;28;20425;-85
2021/04/10 09:29:28;;;;;;;2.13;1.40;;;12.30;92.80;;;;;;5092687;28;20474;-85
2021/04/10 09:31:57;;;;;;;1.33;1.23;;;12.40;92.90;;;;;;5085299;28;20450;-85
2021/04/10 09:34:52;;;;;;;2.20;1.37;;;12.40;92.60;;;;;;5092715;28;20494;-85
2021/04/10 09:38:00;;;;;;;2.20;1.60;;;12.50;92.20;;;;;;5092676;28;20507;-85
2021/04/10 09:40:45;;;;;;;1.17;1.00;;;12.60;92.30;;;;;;5092809;28;20435;-85
2021/04/10 09:43:13;;;;;;;1.50;1.40;;;12.80;91.60;;;;;;5092785;28;20431;-85
2021/04/10 09:45:39;;;;;;;1.27;1.17;;;12.80;91.20;;;;;;5092926;28;20474;-84
2021/04/10 09:48:32;;;;;;;2.90;1.73;;;12.80;91.50;;;;;;5092874;28;20465;-87
2021/04/10 09:51:05;;;;;;;1.10;1.00;;;12.80;91.50;;;;;;5092771;28;20508;-85
2021/04/10 09:53:32;;;;;;;1.40;1.30;;;12.70;90.80;;;;;;5093148;28;20561;-85
2021/04/10 09:56:10;;;;;;;1.20;1.10;;;12.90;91.10;;;;;;5092794;28;20462;-85
2021/04/10 09:58:42;;;;;;;4.53;1.80;;;13.00;91.10;;;;;;5092754;28;20471;-85
2021/04/10 10:01:21;;;;;;;2.30;1.50;;;13.10;90.60;;;;;;5092627;28;20504;-85
2021/04/10 10:03:51;;;;;;;1.93;1.83;;;13.10;90.60;;;;;;5092301;28;20549;-85
2021/04/10 10:06:27;;;;;;;1.90;1.80;;;13.20;90.30;;;;;;5092523;28;20446;-84
2021/04/10 10:08:53;;;;;;;1.63;1.53;;;13.20;90.00;;;;;;5094922;28;20561;-85
2021/04/10 10:11:20;;;;;;;1.40;1.30;;;13.30;90.00;;;;;;5092598;28;20457;-90
2021/04/10 10:13:47;;;;;;;3.37;1.00;;;13.30;89.60;;;;;;5092813;28;20494;-85
2021/04/10 10:16:14;;;;;;;4.97;1.20;;;13.30;88.50;;;;;;5093006;28;20458;-85
2021/04/10 10:19:14;;;;;;;1.10;1.10;;;13.30;88.20;;;;;;5094490;28;20474;-85
2021/04/10 10:21:40;;;;;;;1.43;1.27;;;13.40;88.40;;;;;;5093481;28;20449;-84
2021/04/10 10:24:07;;;;;;;1.47;1.10;;;13.30;88.60;;;;;;5092260;28;20446;-86
2021/04/10 10:26:36;;;;;;;1.53;1.43;;;13.40;88.80;;;;;;5095474;28;20503;-84
2021/04/10 10:29:04;;;;;;;0.70;0.70;;;13.50;87.90;;;;;;5094058;28;20941;-85
2021/04/10 10:31:32;;;;;;;1.13;1.07;;;13.60;86.80;;;;;;5092676;28;20445;-87
2021/04/10 10:34:06;;;;;;;1.13;1.07;;;13.60;86.50;;;;;;5094679;28;20535;-84
2021/04/10 10:36:34;;;;;;;1.10;1.00;;;13.60;86.50;;;;;;5093426;28;20415;-87
2021/04/10 10:39:00;;;;;;;1.30;1.20;;;13.60;85.50;;;;;;5093628;28;20480;-84
2021/04/10 10:41:26;;;;;;;2.00;1.10;;;13.60;85.80;;;;;;5092263;28;20457;-84
2021/04/10 10:44:00;;;;;;;1.23;0.83;;;13.60;86.10;;;;;;5094360;28;20457;-85
2021/04/10 10:46:26;;;;;;;1.37;1.30;;;13.60;86.30;;;;;;5096699;28;20841;-83
2021/04/10 10:48:53;;;;;;;1.70;1.37;;;13.50;85.40;;;;;;5097391;28;20476;-84
2021/04/10 10:51:22;;;;;;;2.10;1.03;;;13.60;85.20;;;;;;5100178;28;20431;-88
2021/04/10 10:53:51;;;;;;;0.97;0.97;;;13.60;85.70;;;;;;5100777;28;20543;-82
2021/04/10 10:56:19;;;;;;;1.13;1.03;;;13.60;85.20;;;;;;5103149;28;20442;-83
2021/04/10 10:58:47;;;;;;;3.23;1.60;;;13.60;85.20;;;;;;5102129;28;20493;-83
2021/04/10 11:01:53;;;;;;;2.13;1.93;;;13.70;85.40;;;;;;5097925;28;20450;-86
2021/04/10 11:04:24;;;;;;;2.60;1.40;;;13.90;85.00;;;;;;5095426;28;20446;-85
2021/04/10 11:06:53;;;;;;;1.37;1.13;;;14.00;84.90;;;;;;5095269;28;20441;-85
2021/04/10 11:09:22;;;;;;;1.10;1.10;;;14.20;83.90;;;;;;5095094;28;20454;-85
2021/04/10 11:11:50;;;;;;;1.00;0.90;;;14.40;83.20;;;;;;5094958;28;20438;-85
2021/04/10 11:14:19;;;;;;;1.63;1.20;;;14.60;82.50;;;;;;5095172;28;20478;-85
2021/04/10 11:16:46;;;;;;;1.40;1.30;;;14.70;82.20;;;;;;5095026;28;20455;-88
2021/04/10 11:19:24;;;;;;;1.27;0.80;;;15.00;81.80;;;;;;5096005;28;20472;-83
2021/04/10 11:21:51;;;;;;;1.90;1.73;;;15.10;80.00;;;;;;5095168;28;20457;-85
2021/04/10 11:24:18;;;;;;;0.70;0.67;;;15.20;79.80;;;;;;5094770;28;20482;-87
2021/04/10 11:26:52;;;;;;;1.63;0.90;;;15.40;78.30;;;;;;5094557;28;20947;-85
2021/04/10 11:29:24;;;;;;;1.30;1.20;;;15.40;77.10;;;;;;5095587;28;20475;-85
2021/04/10 11:32:12;;;;;;;1.33;1.23;;;15.40;76.60;;;;;;5095159;28;20490;-85
2021/04/10 11:34:40;;;;;;;1.33;1.00;;;15.40;77.00;;;;;;5094802;28;20468;-84
2021/04/10 11:37:09;;;;;;;0.90;0.90;;;15.40;75.90;;;;;;5095782;28;20787;-85
2021/04/10 11:39:55;;;;;;;2.23;1.27;;;15.40;75.60;;;;;;5094042;28;20482;-85
2021/04/10 11:42:28;;;;;;;1.63;1.17;;;15.50;75.50;;;;;;5094668;28;20422;-87
2021/04/10 11:44:55;;;;;;;0.90;0.90;;;15.50;74.70;;;;;;5094852;28;20475;-84
2021/04/10 11:47:23;;;;;;;0.90;0.90;;;15.50;75.30;;;;;;5100674;28;20435;-84
2021/04/10 11:49:50;;;;;;;2.20;1.00;;;15.50;74.80;;;;;;5102936;28;20517;-82
2021/04/10 11:52:18;;;;;;;0.87;0.87;;;15.50;74.30;;;;;;5100797;28;20861;-83
2021/04/10 11:54:44;;;;;;;1.27;1.17;;;15.50;73.50;;;;;;5101397;28;20446;-83
2021/04/10 11:57:29;;;;;;;1.97;1.30;;;15.50;73.00;;;;;;5101250;28;20453;-83
2021/04/10 12:00:17;;;;;;;2.87;2.67;;;15.50;73.50;;;;;;5101294;28;20487;-83
2021/04/10 12:02:45;;;;;;;4.67;4.37;;;15.60;73.90;;;;;;5078099;28;20545;-83
2021/04/10 12:05:29;;;;;;;1.33;1.23;;;15.80;73.60;;;;;;5094570;28;20856;-83
2021/04/10 12:08:14;;;;;;;5.90;5.40;;;16.00;72.90;;;;;;5103256;28;20483;-83
2021/04/10 12:10:47;;;;;;;6.13;5.53;;;16.20;71.80;;;;;;5102735;28;20451;-84
2021/04/10 12:13:14;;;;;;;2.57;1.37;;;16.50;70.90;;;;;;5102662;28;20448;-83
2021/04/10 12:15:41;;;;;;;1.50;1.37;;;16.70;70.20;;;;;;5101704;28;20466;-83
2021/04/10 12:18:09;;;;;;;1.73;1.13;;;17.00;70.10;;;;;;5100009;28;20464;-83
2021/04/10 12:20:36;;;;;;;1.67;1.57;;;17.30;68.80;;;;;;5101177;28;20942;-83
2021/04/10 12:23:04;;;;;;;1.90;1.33;;;17.60;68.70;;;;;;5099420;28;20460;-83
2021/04/10 12:25:31;;;;;;;3.10;1.40;;;17.90;67.30;;;;;;5095680;28;20450;-83
2021/04/10 12:27:57;;;;;;;0.90;0.90;;;18.30;65.70;;;;;;5095187;28;20480;-83
2021/04/10 12:30:24;;;;;;;1.43;1.10;;;18.60;65.80;;;;;;5095253;28;20819;-83
2021/04/10 12:32:50;;;;;;;0.90;0.90;;;19.20;62.60;;;;;;5093233;28;20447;-84
2021/04/10 12:35:16;;;;;;;1.77;1.00;;;19.90;61.40;;;;;;5093253;28;21003;-84
2021/04/10 12:37:44;;;;;;;1.03;0.70;;;20.80;60.30;;;;;;5093598;28;20497;-85
2021/04/10 12:40:11;;;;;;;2.23;1.00;;;21.80;58.10;;;;;;5091646;28;20453;-84
2021/04/10 12:42:38;;;;;;;1.53;1.30;;;22.60;56.80;;;;;;5084006;28;20467;-84
2021/04/10 12:45:07;;;;;;;1.57;1.03;;;23.40;51.70;;;;;;5089301;28;20481;-84
2021/04/10 12:47:33;;;;;;;1.17;1.07;;;24.00;51.80;;;;;;5084532;28;20447;-85
2021/04/10 12:50:00;;;;;;;1.23;1.20;;;24.70;48.30;;;;;;5092186;28;20446;-84
2021/04/10 12:52:27;;;;;;;1.23;0.97;;;25.10;45.80;;;;;;5097726;28;20437;-84
2021/04/10 12:54:53;;;;;;;1.03;0.90;;;25.70;44.90;;;;;;5097346;28;20458;-83
2021/04/10 12:57:19;;;;;;;2.40;1.50;;;26.10;43.30;;;;;;5099967;28;20440;-84
2021/04/10 12:59:46;;;;;;;1.20;0.93;;;26.70;42.80;;;;;;5097937;28;21153;-83
2021/04/10 13:02:13;;;;;;;1.87;1.20;;;27.50;41.80;;;;;;5098056;28;20536;-83